• Join FlightAware (Why Join?)
  • Login
  • US Flag 
06:05AM EDT


 

Airport Tracker/Info


-or-


 

Live Flight TrackerFlight Track Log ✈ EGF4058 ✈ 11-Jun-2013 ✈ KCMI - KORD

Flight Track Log - Related Links

Times and Time Zones

All times are in EDT time to prevent confusion due to time zone crossing. See the EGF4058 flight status page for this flight to view local times or setup timezone preferences in your user account.

Time Position Orientation Groundspeed Altitude Reporting Facility
EDT Latitude Longitude Course Direction KTS MPH feet Rate Location/Type
03:17PM 40.0106 -88.3444 337° Northwest 205 236 4,000  Level Chicago Center
03:18PM 40.2517 -88.3910 335° Northwest  Level FlightAware Approximate
03:18PM 40.0789 -88.3772 340° North 225 259 6,700  Level Chicago Center
03:19PM 40.3243 -88.4303 346° North  Level FlightAware Approximate
03:19PM 40.1431 -88.4111 338° Northwest 238 274 8,800  Level Chicago Center
03:20PM 40.3945 -88.4792 330° Northwest  Level FlightAware Approximate
03:20PM 40.2092 -88.4439 339° North 251 289 10,700  Level Chicago Center
03:21PM 40.4680 -88.5198 337° Northwest  Level FlightAware Approximate
03:21PM 40.2817 -88.4775 341° North 267 307 12,200  Level Chicago Center
03:22PM 40.5415 -88.5618 337° Northwest  Level FlightAware Approximate
03:22PM 40.3639 -88.5156 341° North 300 345 13,400  Level Chicago Center
03:23PM 40.4675 -88.5647 340° North 327 376 14,100 240 Climbing Chicago Center
03:24PM 40.5628 -88.6108 340° North 354 407 14,000 -60 Descending Chicago Center
03:25PM 40.6608 -88.6569 340° North 369 425 14,000  Level Chicago Center
03:26PM 40.7594 -88.7017 341° North 374 430 14,000  Level Chicago Center
03:27PM 40.8611 -88.7267 349° North 382 440 14,000  Level Chicago Center
03:28PM 40.9686 -88.7108 North 386 444 14,000  Level Chicago Center
03:29PM 41.0953 -88.6892 North 386 444 14,000 -180 Level Chicago Center
03:30PM 41.2017 -88.6758 North 384 442 13,700 -600 Descending Chicago Center
03:31PM 41.3000 -88.6606 North 362 417 12,800 -960 Descending Chicago Center
03:32PM 41.3961 -88.6453 North 351 404 11,800 -840 Descending Chicago Center
03:33PM 41.4914 -88.6278 North 345 397 11,100 -420 Descending Chicago Center
03:35PM 41.5778 -88.5175 44° Northeast 357 411 11,000 -360 Descending Chicago Center
03:36PM 41.6439 -88.4172 49° Northeast 358 412 10,400 -540 Descending Chicago Center
03:37PM 41.7092 -88.3192 48° Northeast 354 407 10,000 -240 Descending Chicago Center
03:38PM 41.7739 -88.2222 48° Northeast 351 404 10,000 -600 Level Chicago Center
03:39PM 41.8308 -88.1336 49° Northeast 324 373 8,800 -1,200 Descending Chicago Center
03:40PM 41.8678 -88.0325 64° Northeast 311 358 7,600 -900 Descending Chicago Center
03:41PM 41.9000 -87.9167 69° East 262 302 7,000 -360 Descending Chicago TRACON
03:42PM 41.9000 -87.8333 90° East 257 296 7,000 -660 Level Chicago TRACON
03:43PM 41.8944 -87.7325 94° East 252 290 5,600 -1,440 Descending Chicago Center
03:44PM 41.9428 -87.7178 13° North 216 249 3,900 -1,680 Descending Chicago Center